sensor_id;sensor_type;location;lat;lon;timestamp;temperature;humidity
37204;DHT22;23098;48.054;10.636;2022-12-18T07:44:42;-5.40;99.90
37204;DHT22;23098;48.054;10.636;2022-12-18T07:47:08;-5.40;99.90
37204;DHT22;23098;48.054;10.636;2022-12-18T07:54:54;-5.40;99.90
37204;DHT22;23098;48.054;10.636;2022-12-18T09:17:39;-5.00;99.90
37204;DHT22;23098;48.054;10.636;2022-12-18T09:20:05;-5.20;99.90
37204;DHT22;23098;48.054;10.636;2022-12-18T09:22:31;-5.10;99.90
37204;DHT22;23098;48.054;10.636;2022-12-18T09:24:56;-5.00;99.90
37204;DHT22;23098;48.054;10.636;2022-12-18T09:27:22;-5.00;99.90
37204;DHT22;23098;48.054;10.636;2022-12-18T09:29:47;-5.00;99.90
37204;DHT22;23098;48.054;10.636;2022-12-18T09:32:13;-4.60;99.90
37204;DHT22;23098;48.054;10.636;2022-12-18T09:34:39;-4.70;99.90
37204;DHT22;23098;48.054;10.636;2022-12-18T09:55:29;-4.50;99.90
37204;DHT22;23098;48.054;10.636;2022-12-18T09:58:00;-4.60;99.90
37204;DHT22;23098;48.054;10.636;2022-12-18T10:00:30;-4.70;99.90
37204;DHT22;23098;48.054;10.636;2022-12-18T10:03:03;-4.50;99.90
37204;DHT22;23098;48.054;10.636;2022-12-18T10:05:46;-4.40;99.90
37204;DHT22;23098;48.054;10.636;2022-12-18T10:10:53;-4.30;99.90
37204;DHT22;23098;48.054;10.636;2022-12-18T10:13:44;-4.60;99.90
37204;DHT22;23098;48.054;10.636;2022-12-18T10:22:29;-4.20;99.90
37204;DHT22;23098;48.054;10.636;2022-12-18T10:24:50;-4.30;99.90
37204;DHT22;23098;48.054;10.636;2022-12-18T10:27:22;-4.40;99.90
37204;DHT22;23098;48.054;10.636;2022-12-18T10:29:53;-4.10;99.90
37204;DHT22;23098;48.054;10.636;2022-12-18T10:32:22;-4.30;99.90
37204;DHT22;23098;48.054;10.636;2022-12-18T10:34:50;-4.40;99.90
37204;DHT22;23098;48.054;10.636;2022-12-18T10:37:17;-4.60;99.90
37204;DHT22;23098;48.054;10.636;2022-12-18T10:39:44;-4.60;99.90
37204;DHT22;23098;48.054;10.636;2022-12-18T10:42:16;-4.40;99.90
37204;DHT22;23098;48.054;10.636;2022-12-18T10:44:42;-4.00;99.90
37204;DHT22;23098;48.054;10.636;2022-12-18T10:47:14;-3.70;99.90
37204;DHT22;23098;48.054;10.636;2022-12-18T10:49:50;-3.80;99.90
37204;DHT22;23098;48.054;10.636;2022-12-18T10:52:21;-4.10;99.90
37204;DHT22;23098;48.054;10.636;2022-12-18T10:54:53;-4.20;99.90
37204;DHT22;23098;48.054;10.636;2022-12-18T10:59:54;-4.00;99.90
37204;DHT22;23098;48.054;10.636;2022-12-18T11:02:37;-4.10;99.90
37204;DHT22;23098;48.054;10.636;2022-12-18T11:05:22;-4.00;99.90
37204;DHT22;23098;48.054;10.636;2022-12-18T11:07:50;-3.90;99.90
37204;DHT22;23098;48.054;10.636;2022-12-18T11:10:20;-3.80;99.90
37204;DHT22;23098;48.054;10.636;2022-12-18T11:12:47;-3.90;99.90
37204;DHT22;23098;48.054;10.636;2022-12-18T11:15:23;-4.40;99.90
37204;DHT22;23098;48.054;10.636;2022-12-18T11:17:53;-4.40;99.90
37204;DHT22;23098;48.054;10.636;2022-12-18T11:20:30;-4.40;99.90
37204;DHT22;23098;48.054;10.636;2022-12-18T11:22:59;-4.30;99.90
37204;DHT22;23098;48.054;10.636;2022-12-18T11:25:26;-4.40;99.90
37204;DHT22;23098;48.054;10.636;2022-12-18T11:28:04;-4.10;99.90
37204;DHT22;23098;48.054;10.636;2022-12-18T11:30:35;-4.60;99.90
37204;DHT22;23098;48.054;10.636;2022-12-18T11:33:05;-4.40;99.90
37204;DHT22;23098;48.054;10.636;2022-12-18T11:35:59;-4.20;99.90
37204;DHT22;23098;48.054;10.636;2022-12-18T11:38:27;-4.30;99.90
37204;DHT22;23098;48.054;10.636;2022-12-18T11:41:16;-4.00;99.90
37204;DHT22;23098;48.054;10.636;2022-12-18T11:43:52;-3.60;99.90
37204;DHT22;23098;48.054;10.636;2022-12-18T11:46:43;-3.70;99.90
37204;DHT22;23098;48.054;10.636;2022-12-18T11:49:18;-3.90;99.90
37204;DHT22;23098;48.054;10.636;2022-12-18T11:51:58;-3.90;99.90
37204;DHT22;23098;48.054;10.636;2022-12-18T11:54:25;-3.60;99.90
37204;DHT22;23098;48.054;10.636;2022-12-18T11:57:18;-3.60;99.90
37204;DHT22;23098;48.054;10.636;2022-12-18T11:59:52;-3.80;99.90
37204;DHT22;23098;48.054;10.636;2022-12-18T12:05:39;-3.70;99.90
37204;DHT22;23098;48.054;10.636;2022-12-18T12:08:44;-3.70;99.90
37204;DHT22;23098;48.054;10.636;2022-12-18T12:20:00;-3.60;99.90
37204;DHT22;23098;48.054;10.636;2022-12-18T12:22:47;-3.60;99.90
37204;DHT22;23098;48.054;10.636;2022-12-18T12:25:31;-4.00;99.90
37204;DHT22;23098;48.054;10.636;2022-12-18T12:38:43;-3.60;99.90
37204;DHT22;23098;48.054;10.636;2022-12-18T12:41:18;-3.40;99.90
37204;DHT22;23098;48.054;10.636;2022-12-18T12:44:07;-3.20;99.90
37204;DHT22;23098;48.054;10.636;2022-12-18T12:46:37;-3.80;99.90
37204;DHT22;23098;48.054;10.636;2022-12-18T12:49:07;-3.90;99.90
37204;DHT22;23098;48.054;10.636;2022-12-18T12:51:37;-4.00;99.90
37204;DHT22;23098;48.054;10.636;2022-12-18T12:54:10;-3.90;99.90
37204;DHT22;23098;48.054;10.636;2022-12-18T12:59:56;-4.30;99.90
37204;DHT22;23098;48.054;10.636;2022-12-18T13:02:31;-4.20;99.90
37204;DHT22;23098;48.054;10.636;2022-12-18T13:07:50;-4.50;99.90
37204;DHT22;23098;48.054;10.636;2022-12-18T13:15:44;-4.30;99.90
37204;DHT22;23098;48.054;10.636;2022-12-18T13:20:40;-4.90;99.90
37204;DHT22;23098;48.054;10.636;2022-12-18T13:23:38;-5.00;99.90
37204;DHT22;23098;48.054;10.636;2022-12-18T13:31:02;-4.70;99.90
37204;DHT22;23098;48.054;10.636;2022-12-18T13:33:46;-4.80;99.90
37204;DHT22;23098;48.054;10.636;2022-12-18T13:36:27;-4.90;99.90
37204;DHT22;23098;48.054;10.636;2022-12-18T13:41:45;-4.60;99.90
37204;DHT22;23098;48.054;10.636;2022-12-18T13:44:40;-4.50;99.90
37204;DHT22;23098;48.054;10.636;2022-12-18T13:47:35;-4.40;99.90
37204;DHT22;23098;48.054;10.636;2022-12-18T13:50:12;-4.40;99.90
37204;DHT22;23098;48.054;10.636;2022-12-18T13:52:48;-4.20;99.90
37204;DHT22;23098;48.054;10.636;2022-12-18T13:55:17;-4.50;99.90
37204;DHT22;23098;48.054;10.636;2022-12-18T13:57:43;-4.80;99.90
37204;DHT22;23098;48.054;10.636;2022-12-18T14:00:29;-4.70;99.90
37204;DHT22;23098;48.054;10.636;2022-12-18T14:02:56;-4.60;99.90
37204;DHT22;23098;48.054;10.636;2022-12-18T14:07:48;-4.50;99.90
37204;DHT22;23098;48.054;10.636;2022-12-18T14:10:15;-4.70;99.90
37204;DHT22;23098;48.054;10.636;2022-12-18T14:12:45;-4.70;99.90
37204;DHT22;23098;48.054;10.636;2022-12-18T14:15:33;-4.70;99.90
37204;DHT22;23098;48.054;10.636;2022-12-18T14:20:45;-4.50;99.90
37204;DHT22;23098;48.054;10.636;2022-12-18T14:25:55;-4.80;99.90
37204;DHT22;23098;48.054;10.636;2022-12-18T14:28:20;-4.80;99.90
37204;DHT22;23098;48.054;10.636;2022-12-18T14:30:49;-4.70;99.90
37204;DHT22;23098;48.054;10.636;2022-12-18T14:33:26;-4.70;99.90
37204;DHT22;23098;48.054;10.636;2022-12-18T14:36:03;-4.70;99.90
37204;DHT22;23098;48.054;10.636;2022-12-18T14:38:30;-4.70;99.90
37204;DHT22;23098;48.054;10.636;2022-12-18T14:43:23;-4.70;99.90
37204;DHT22;23098;48.054;10.636;2022-12-18T14:45:49;-4.80;99.90
37204;DHT22;23098;48.054;10.636;2022-12-18T14:48:31;-4.80;99.90
37204;DHT22;23098;48.054;10.636;2022-12-18T14:53:44;-4.80;99.90
37204;DHT22;23098;48.054;10.636;2022-12-18T14:59:15;-4.70;99.90
37204;DHT22;23098;48.054;10.636;2022-12-18T15:04:40;-4.80;99.90
37204;DHT22;23098;48.054;10.636;2022-12-18T15:07:21;-4.80;99.90
37204;DHT22;23098;48.054;10.636;2022-12-18T15:10:13;-4.80;99.90
37204;DHT22;23098;48.054;10.636;2022-12-18T15:12:41;-4.80;99.90
37204;DHT22;23098;48.054;10.636;2022-12-18T15:20:24;-5.10;99.90
37204;DHT22;23098;48.054;10.636;2022-12-18T15:22:50;-5.10;99.90
37204;DHT22;23098;48.054;10.636;2022-12-18T15:25:31;-5.20;99.90
37204;DHT22;23098;48.054;10.636;2022-12-18T15:27:58;-5.20;99.90
37204;DHT22;23098;48.054;10.636;2022-12-18T15:30:26;-5.10;99.90
37204;DHT22;23098;48.054;10.636;2022-12-18T15:32:52;-5.20;99.90
37204;DHT22;23098;48.054;10.636;2022-12-18T15:35:38;-5.10;99.90
37204;DHT22;23098;48.054;10.636;2022-12-18T15:38:03;-5.00;99.90
37204;DHT22;23098;48.054;10.636;2022-12-18T15:40:29;-5.00;99.90
37204;DHT22;23098;48.054;10.636;2022-12-18T15:42:55;-5.00;99.90
37204;DHT22;23098;48.054;10.636;2022-12-18T15:45:40;-5.10;99.90
37204;DHT22;23098;48.054;10.636;2022-12-18T15:48:36;-5.20;99.90
37204;DHT22;23098;48.054;10.636;2022-12-18T15:51:05;-5.20;99.90
37204;DHT22;23098;48.054;10.636;2022-12-18T15:53:35;-5.10;99.90
37204;DHT22;23098;48.054;10.636;2022-12-18T15:56:01;-5.20;99.90
37204;DHT22;23098;48.054;10.636;2022-12-18T15:58:45;-5.20;99.90
37204;DHT22;23098;48.054;10.636;2022-12-18T16:01:11;-5.30;99.90
37204;DHT22;23098;48.054;10.636;2022-12-18T16:03:36;-5.40;99.90
37204;DHT22;23098;48.054;10.636;2022-12-18T16:06:02;-5.40;99.90
37204;DHT22;23098;48.054;10.636;2022-12-18T16:08:29;-5.50;99.90
37204;DHT22;23098;48.054;10.636;2022-12-18T16:10:55;-5.60;99.90
37204;DHT22;23098;48.054;10.636;2022-12-18T16:13:21;-5.50;99.90
37204;DHT22;23098;48.054;10.636;2022-12-18T16:15:47;-5.60;99.90
37204;DHT22;23098;48.054;10.636;2022-12-18T16:18:14;-5.50;99.90
37204;DHT22;23098;48.054;10.636;2022-12-18T16:20:40;-5.50;99.90
37204;DHT22;23098;48.054;10.636;2022-12-18T16:23:06;-5.60;99.90
37204;DHT22;23098;48.054;10.636;2022-12-18T16:25:32;-5.50;99.90
37204;DHT22;23098;48.054;10.636;2022-12-18T16:27:58;-5.50;99.90
37204;DHT22;23098;48.054;10.636;2022-12-18T16:30:26;-5.40;99.90
37204;DHT22;23098;48.054;10.636;2022-12-18T16:32:54;-5.50;99.90
37204;DHT22;23098;48.054;10.636;2022-12-18T16:35:21;-5.50;99.90
37204;DHT22;23098;48.054;10.636;2022-12-18T16:37:46;-5.50;99.90
37204;DHT22;23098;48.054;10.636;2022-12-18T16:40:14;-5.50;99.90
37204;DHT22;23098;48.054;10.636;2022-12-18T16:42:42;-5.50;99.90
37204;DHT22;23098;48.054;10.636;2022-12-18T16:45:09;-5.50;99.90
37204;DHT22;23098;48.054;10.636;2022-12-18T16:47:36;-5.60;99.90
37204;DHT22;23098;48.054;10.636;2022-12-18T16:50:02;-5.60;99.90
37204;DHT22;23098;48.054;10.636;2022-12-18T16:52:27;-5.70;99.90
37204;DHT22;23098;48.054;10.636;2022-12-18T17:02:43;-5.90;99.90
37204;DHT22;23098;48.054;10.636;2022-12-18T17:05:13;-5.90;99.90
37204;DHT22;23098;48.054;10.636;2022-12-18T17:08:03;-5.90;99.90
37204;DHT22;23098;48.054;10.636;2022-12-18T17:10:34;-5.90;99.90
37204;DHT22;23098;48.054;10.636;2022-12-18T17:13:01;-5.90;99.90
37204;DHT22;23098;48.054;10.636;2022-12-18T17:15:26;-6.00;99.90
37204;DHT22;23098;48.054;10.636;2022-12-18T17:17:52;-6.00;99.90
37204;DHT22;23098;48.054;10.636;2022-12-18T17:20:17;-6.00;99.90
37204;DHT22;23098;48.054;10.636;2022-12-18T17:22:44;-6.00;99.90
37204;DHT22;23098;48.054;10.636;2022-12-18T17:25:09;-6.20;99.90
37204;DHT22;23098;48.054;10.636;2022-12-18T17:27:35;-6.20;99.90
37204;DHT22;23098;48.054;10.636;2022-12-18T17:30:05;-6.20;99.90
37204;DHT22;23098;48.054;10.636;2022-12-18T17:32:31;-6.20;99.90
37204;DHT22;23098;48.054;10.636;2022-12-18T17:34:57;-6.30;99.90
37204;DHT22;23098;48.054;10.636;2022-12-18T17:37:22;-6.30;99.90
37204;DHT22;23098;48.054;10.636;2022-12-18T17:39:52;-6.30;99.90
37204;DHT22;23098;48.054;10.636;2022-12-18T17:48:36;-6.30;99.90
37204;DHT22;23098;48.054;10.636;2022-12-18T17:51:03;-6.30;99.90
37204;DHT22;23098;48.054;10.636;2022-12-18T17:53:33;-6.20;99.90
37204;DHT22;23098;48.054;10.636;2022-12-18T17:56:00;-6.20;99.90
37204;DHT22;23098;48.054;10.636;2022-12-18T17:58:29;-6.20;99.90
37204;DHT22;23098;48.054;10.636;2022-12-18T18:00:58;-6.20;99.90
37204;DHT22;23098;48.054;10.636;2022-12-18T18:03:24;-6.20;99.90
37204;DHT22;23098;48.054;10.636;2022-12-18T18:05:57;-6.20;99.90
37204;DHT22;23098;48.054;10.636;2022-12-18T18:08:23;-6.20;99.90
37204;DHT22;23098;48.054;10.636;2022-12-18T18:10:51;-6.20;99.90
37204;DHT22;23098;48.054;10.636;2022-12-18T18:13:27;-6.20;99.90
37204;DHT22;23098;48.054;10.636;2022-12-18T18:21:41;-6.20;99.90
37204;DHT22;23098;48.054;10.636;2022-12-18T18:24:08;-6.30;99.90
37204;DHT22;23098;48.054;10.636;2022-12-18T18:26:36;-6.20;99.90
37204;DHT22;23098;48.054;10.636;2022-12-18T18:29:04;-6.20;99.90
37204;DHT22;23098;48.054;10.636;2022-12-18T18:31:31;-6.20;99.90
37204;DHT22;23098;48.054;10.636;2022-12-18T18:33:59;-6.10;99.90
37204;DHT22;23098;48.054;10.636;2022-12-18T18:36:29;-6.10;99.90
37204;DHT22;23098;48.054;10.636;2022-12-18T18:38:58;-6.10;99.90
37204;DHT22;23098;48.054;10.636;2022-12-18T18:52:33;-6.20;99.90
37204;DHT22;23098;48.054;10.636;2022-12-18T18:55:00;-6.30;99.90
37204;DHT22;23098;48.054;10.636;2022-12-18T18:57:25;-6.30;99.90
37204;DHT22;23098;48.054;10.636;2022-12-18T18:59:51;-6.30;99.90
37204;DHT22;23098;48.054;10.636;2022-12-18T19:02:16;-6.30;99.90
37204;DHT22;23098;48.054;10.636;2022-12-18T19:04:44;-6.40;99.90
37204;DHT22;23098;48.054;10.636;2022-12-18T19:07:15;-6.30;99.90
37204;DHT22;23098;48.054;10.636;2022-12-18T19:09:41;-6.30;99.90
37204;DHT22;23098;48.054;10.636;2022-12-18T19:12:06;-6.40;99.90
37204;DHT22;23098;48.054;10.636;2022-12-18T19:15:05;-6.40;99.90
37204;DHT22;23098;48.054;10.636;2022-12-18T19:17:39;-6.30;99.90
37204;DHT22;23098;48.054;10.636;2022-12-18T19:20:05;-6.30;99.90
37204;DHT22;23098;48.054;10.636;2022-12-18T19:22:31;-6.30;99.90
37204;DHT22;23098;48.054;10.636;2022-12-18T19:24:56;-6.30;99.90
37204;DHT22;23098;48.054;10.636;2022-12-18T19:27:22;-6.30;99.90
37204;DHT22;23098;48.054;10.636;2022-12-18T19:29:48;-6.30;99.90
37204;DHT22;23098;48.054;10.636;2022-12-18T19:32:14;-6.30;99.90
37204;DHT22;23098;48.054;10.636;2022-12-18T19:34:40;-6.40;99.90
37204;DHT22;23098;48.054;10.636;2022-12-18T19:37:06;-6.40;99.90
37204;DHT22;23098;48.054;10.636;2022-12-18T19:39:31;-6.40;99.90
37204;DHT22;23098;48.054;10.636;2022-12-18T19:41:57;-6.30;99.90
37204;DHT22;23098;48.054;10.636;2022-12-18T19:44:22;-6.40;99.90
37204;DHT22;23098;48.054;10.636;2022-12-18T19:46:51;-6.50;99.90
37204;DHT22;23098;48.054;10.636;2022-12-18T19:49:17;-6.40;99.90
37204;DHT22;23098;48.054;10.636;2022-12-18T19:51:46;-6.40;99.90
37204;DHT22;23098;48.054;10.636;2022-12-18T19:54:12;-6.30;99.90
37204;DHT22;23098;48.054;10.636;2022-12-18T19:56:38;-6.30;99.90
37204;DHT22;23098;48.054;10.636;2022-12-18T19:59:04;-6.30;99.90
37204;DHT22;23098;48.054;10.636;2022-12-18T20:01:30;-6.30;99.90
37204;DHT22;23098;48.054;10.636;2022-12-18T20:04:03;-6.30;99.90
37204;DHT22;23098;48.054;10.636;2022-12-18T20:06:30;-6.30;99.90
37204;DHT22;23098;48.054;10.636;2022-12-18T20:08:58;-6.20;99.90
37204;DHT22;23098;48.054;10.636;2022-12-18T20:11:24;-6.20;99.90
37204;DHT22;23098;48.054;10.636;2022-12-18T20:13:50;-6.20;99.90
37204;DHT22;23098;48.054;10.636;2022-12-18T20:16:15;-6.20;99.90
37204;DHT22;23098;48.054;10.636;2022-12-18T20:18:41;-6.20;99.90
37204;DHT22;23098;48.054;10.636;2022-12-18T20:21:07;-6.10;99.90
37204;DHT22;23098;48.054;10.636;2022-12-18T20:23:33;-6.10;99.90
37204;DHT22;23098;48.054;10.636;2022-12-18T20:25:59;-6.20;99.90
37204;DHT22;23098;48.054;10.636;2022-12-18T20:28:27;-6.20;99.90
37204;DHT22;23098;48.054;10.636;2022-12-18T20:31:00;-6.20;99.90
37204;DHT22;23098;48.054;10.636;2022-12-18T20:33:27;-6.10;99.90
37204;DHT22;23098;48.054;10.636;2022-12-18T20:35:53;-6.10;99.90
37204;DHT22;23098;48.054;10.636;2022-12-18T20:38:20;-6.10;99.90
37204;DHT22;23098;48.054;10.636;2022-12-18T20:40:45;-6.10;99.90
37204;DHT22;23098;48.054;10.636;2022-12-18T20:43:11;-6.10;99.90
37204;DHT22;23098;48.054;10.636;2022-12-18T20:45:37;-6.10;99.90
37204;DHT22;23098;48.054;10.636;2022-12-18T20:48:03;-6.10;99.90
37204;DHT22;23098;48.054;10.636;2022-12-18T20:50:28;-6.10;99.90
37204;DHT22;23098;48.054;10.636;2022-12-18T20:52:54;-6.10;99.90
37204;DHT22;23098;48.054;10.636;2022-12-18T20:55:19;-6.10;99.90
37204;DHT22;23098;48.054;10.636;2022-12-18T20:57:46;-6.10;99.90
37204;DHT22;23098;48.054;10.636;2022-12-18T21:00:15;-6.10;99.90
37204;DHT22;23098;48.054;10.636;2022-12-18T21:02:40;-6.10;99.90
37204;DHT22;23098;48.054;10.636;2022-12-18T21:05:08;-6.20;99.90
37204;DHT22;23098;48.054;10.636;2022-12-18T21:07:33;-6.10;99.90
37204;DHT22;23098;48.054;10.636;2022-12-18T21:09:59;-6.10;99.90
37204;DHT22;23098;48.054;10.636;2022-12-18T21:12:24;-6.10;99.90
37204;DHT22;23098;48.054;10.636;2022-12-18T21:15:01;-6.10;99.90
37204;DHT22;23098;48.054;10.636;2022-12-18T21:17:28;-6.00;99.90
37204;DHT22;23098;48.054;10.636;2022-12-18T21:19:54;-6.00;99.90
37204;DHT22;23098;48.054;10.636;2022-12-18T21:22:20;-6.00;99.90
37204;DHT22;23098;48.054;10.636;2022-12-18T21:24:47;-6.10;99.90
37204;DHT22;23098;48.054;10.636;2022-12-18T21:27:13;-6.10;99.90
37204;DHT22;23098;48.054;10.636;2022-12-18T21:29:42;-6.10;99.90
37204;DHT22;23098;48.054;10.636;2022-12-18T21:32:11;-6.10;99.90
37204;DHT22;23098;48.054;10.636;2022-12-18T21:34:39;-6.10;99.90
37204;DHT22;23098;48.054;10.636;2022-12-18T21:37:05;-6.10;99.90
37204;DHT22;23098;48.054;10.636;2022-12-18T21:39:31;-6.20;99.90
37204;DHT22;23098;48.054;10.636;2022-12-18T21:42:00;-6.20;99.90
37204;DHT22;23098;48.054;10.636;2022-12-18T21:44:50;-6.10;99.90
37204;DHT22;23098;48.054;10.636;2022-12-18T21:47:16;-6.10;99.90
37204;DHT22;23098;48.054;10.636;2022-12-18T21:49:42;-6.10;99.90
37204;DHT22;23098;48.054;10.636;2022-12-18T21:52:07;-6.10;99.90
37204;DHT22;23098;48.054;10.636;2022-12-18T21:54:34;-6.10;99.90
37204;DHT22;23098;48.054;10.636;2022-12-18T21:57:06;-6.10;99.90
37204;DHT22;23098;48.054;10.636;2022-12-18T21:59:41;-6.10;99.90
37204;DHT22;23098;48.054;10.636;2022-12-18T22:02:19;-6.00;99.90
37204;DHT22;23098;48.054;10.636;2022-12-18T22:04:45;-6.10;99.90
37204;DHT22;23098;48.054;10.636;2022-12-18T22:07:12;-6.00;99.90
37204;DHT22;23098;48.054;10.636;2022-12-18T22:09:41;-6.00;99.90
37204;DHT22;23098;48.054;10.636;2022-12-18T22:12:07;-6.00;99.90
37204;DHT22;23098;48.054;10.636;2022-12-18T22:14:34;-5.80;99.90
37204;DHT22;23098;48.054;10.636;2022-12-18T22:16:59;-5.80;99.90
37204;DHT22;23098;48.054;10.636;2022-12-18T22:19:25;-5.80;99.90
37204;DHT22;23098;48.054;10.636;2022-12-18T22:21:51;-5.80;99.90
37204;DHT22;23098;48.054;10.636;2022-12-18T22:24:26;-5.80;99.90
37204;DHT22;23098;48.054;10.636;2022-12-18T22:26:53;-5.80;99.90
37204;DHT22;23098;48.054;10.636;2022-12-18T22:29:23;-5.80;99.90
37204;DHT22;23098;48.054;10.636;2022-12-18T22:32:10;-5.80;99.90
37204;DHT22;23098;48.054;10.636;2022-12-18T22:34:37;-5.80;99.90
37204;DHT22;23098;48.054;10.636;2022-12-18T22:37:04;-5.80;99.90
37204;DHT22;23098;48.054;10.636;2022-12-18T22:39:30;-5.80;99.90
37204;DHT22;23098;48.054;10.636;2022-12-18T22:41:57;-5.80;99.90
37204;DHT22;23098;48.054;10.636;2022-12-18T22:44:23;-5.80;99.90
37204;DHT22;23098;48.054;10.636;2022-12-18T22:46:50;-5.80;99.90
37204;DHT22;23098;48.054;10.636;2022-12-18T22:49:18;-5.80;99.90
37204;DHT22;23098;48.054;10.636;2022-12-18T22:51:45;-5.80;99.90
37204;DHT22;23098;48.054;10.636;2022-12-18T22:54:11;-5.70;99.90
37204;DHT22;23098;48.054;10.636;2022-12-18T22:56:36;-5.80;99.90
37204;DHT22;23098;48.054;10.636;2022-12-18T22:59:02;-5.80;99.90
37204;DHT22;23098;48.054;10.636;2022-12-18T23:01:29;-5.80;99.90
37204;DHT22;23098;48.054;10.636;2022-12-18T23:03:55;-5.80;99.90
37204;DHT22;23098;48.054;10.636;2022-12-18T23:06:23;-5.70;99.90
37204;DHT22;23098;48.054;10.636;2022-12-18T23:08:48;-5.70;99.90
37204;DHT22;23098;48.054;10.636;2022-12-18T23:11:15;-5.70;99.90
37204;DHT22;23098;48.054;10.636;2022-12-18T23:13:41;-5.70;99.90
37204;DHT22;23098;48.054;10.636;2022-12-18T23:16:10;-5.60;99.90
37204;DHT22;23098;48.054;10.636;2022-12-18T23:18:36;-5.60;99.90
37204;DHT22;23098;48.054;10.636;2022-12-18T23:21:04;-5.50;99.90
37204;DHT22;23098;48.054;10.636;2022-12-18T23:23:32;-5.50;99.90
37204;DHT22;23098;48.054;10.636;2022-12-18T23:26:06;-5.50;99.90
37204;DHT22;23098;48.054;10.636;2022-12-18T23:28:33;-5.50;99.90
37204;DHT22;23098;48.054;10.636;2022-12-18T23:31:07;-5.40;99.90
37204;DHT22;23098;48.054;10.636;2022-12-18T23:33:34;-5.40;99.90
37204;DHT22;23098;48.054;10.636;2022-12-18T23:36:00;-5.30;99.90
37204;DHT22;23098;48.054;10.636;2022-12-18T23:38:27;-5.30;99.90
37204;DHT22;23098;48.054;10.636;2022-12-18T23:40:52;-5.40;99.90
37204;DHT22;23098;48.054;10.636;2022-12-18T23:43:18;-5.50;99.90
37204;DHT22;23098;48.054;10.636;2022-12-18T23:45:43;-5.60;99.90
37204;DHT22;23098;48.054;10.636;2022-12-18T23:48:10;-5.60;99.90
37204;DHT22;23098;48.054;10.636;2022-12-18T23:50:35;-5.60;99.90
37204;DHT22;23098;48.054;10.636;2022-12-18T23:53:01;-5.50;99.90
37204;DHT22;23098;48.054;10.636;2022-12-18T23:55:26;-5.50;99.90
37204;DHT22;23098;48.054;10.636;2022-12-18T23:57:52;-5.40;99.90
